Marthasville, Missouri
Current Conditions -  °F | °C
As of 6:15 AM on Thursday 18 Dec 2014 (Local Time) from KFYG Reporting Station
Light Snow Light Snow  
Wind Chill: 30°   Ceiling: Unl
Heat Index: 30°   Visibility: 1.2mi
Dew Point: 28°   Wind: 0mph
Humidity: 93%   Direction: NA
Pressure: 30.28"   Gusts: NA
Location:  38.63°N, 91.06°W
Report Text: KFYG 181215Z AUTO 00000KT 1 1/4SM -SN SCT002 M01/M02 A3028 RMK AO2 P0003
Loading
Personal Weather Stations






























Interactive Weather Map New forecast layout! Learn more

10-Day Weather Forecast

Advertisements
Track Severe Weather on mobile